sensor_id;sensor_type;location;lat;lon;timestamp;P1;durP1;ratioP1;P2;durP2;ratioP2
2972;SDS011;1496;51.404;7.232;2022-12-11T00:00:53;66.80;;;23.97;;
2972;SDS011;1496;51.404;7.232;2022-12-11T00:03:18;51.93;;;21.00;;
2972;SDS011;1496;51.404;7.232;2022-12-11T00:05:44;53.60;;;21.67;;
2972;SDS011;1496;51.404;7.232;2022-12-11T00:08:10;52.87;;;23.80;;
2972;SDS011;1496;51.404;7.232;2022-12-11T00:10:37;56.03;;;23.40;;
2972;SDS011;1496;51.404;7.232;2022-12-11T00:13:03;46.53;;;19.23;;
2972;SDS011;1496;51.404;7.232;2022-12-11T00:15:30;56.20;;;23.33;;
2972;SDS011;1496;51.404;7.232;2022-12-11T00:17:55;45.77;;;20.07;;
2972;SDS011;1496;51.404;7.232;2022-12-11T00:20:21;53.70;;;19.27;;
2972;SDS011;1496;51.404;7.232;2022-12-11T00:22:47;44.83;;;20.47;;
2972;SDS011;1496;51.404;7.232;2022-12-11T00:25:12;56.00;;;22.07;;
2972;SDS011;1496;51.404;7.232;2022-12-11T00:27:38;60.63;;;21.93;;
2972;SDS011;1496;51.404;7.232;2022-12-11T00:30:04;60.70;;;24.47;;
2972;SDS011;1496;51.404;7.232;2022-12-11T00:32:30;55.00;;;22.80;;
2972;SDS011;1496;51.404;7.232;2022-12-11T00:34:56;68.40;;;23.13;;
2972;SDS011;1496;51.404;7.232;2022-12-11T00:37:22;60.00;;;24.00;;
2972;SDS011;1496;51.404;7.232;2022-12-11T00:39:48;59.07;;;23.43;;
2972;SDS011;1496;51.404;7.232;2022-12-11T00:42:13;48.53;;;22.70;;
2972;SDS011;1496;51.404;7.232;2022-12-11T00:44:39;56.50;;;22.07;;
2972;SDS011;1496;51.404;7.232;2022-12-11T00:47:05;49.20;;;19.57;;
2972;SDS011;1496;51.404;7.232;2022-12-11T00:49:32;54.57;;;19.80;;
2972;SDS011;1496;51.404;7.232;2022-12-11T00:51:58;50.07;;;21.00;;
2972;SDS011;1496;51.404;7.232;2022-12-11T00:54:24;52.83;;;22.37;;
2972;SDS011;1496;51.404;7.232;2022-12-11T00:56:49;48.17;;;20.70;;
2972;SDS011;1496;51.404;7.232;2022-12-11T00:59:15;66.80;;;22.03;;
2972;SDS011;1496;51.404;7.232;2022-12-11T01:01:41;52.90;;;22.30;;
2972;SDS011;1496;51.404;7.232;2022-12-11T01:04:06;57.23;;;21.13;;
2972;SDS011;1496;51.404;7.232;2022-12-11T01:06:32;52.80;;;19.37;;
2972;SDS011;1496;51.404;7.232;2022-12-11T01:08:58;57.00;;;20.80;;
2972;SDS011;1496;51.404;7.232;2022-12-11T01:11:42;78.20;;;23.07;;
2972;SDS011;1496;51.404;7.232;2022-12-11T01:14:08;51.33;;;21.90;;
2972;SDS011;1496;51.404;7.232;2022-12-11T01:16:35;55.43;;;21.27;;
2972;SDS011;1496;51.404;7.232;2022-12-11T01:19:01;53.77;;;22.10;;
2972;SDS011;1496;51.404;7.232;2022-12-11T01:21:27;60.57;;;21.67;;
2972;SDS011;1496;51.404;7.232;2022-12-11T01:23:53;59.13;;;21.63;;
2972;SDS011;1496;51.404;7.232;2022-12-11T01:26:18;59.10;;;21.00;;
2972;SDS011;1496;51.404;7.232;2022-12-11T01:28:47;49.50;;;20.30;;
2972;SDS011;1496;51.404;7.232;2022-12-11T01:31:14;57.30;;;22.10;;
2972;SDS011;1496;51.404;7.232;2022-12-11T01:33:41;63.50;;;21.70;;
2972;SDS011;1496;51.404;7.232;2022-12-11T01:36:08;57.40;;;20.07;;
2972;SDS011;1496;51.404;7.232;2022-12-11T01:38:35;61.83;;;21.37;;
2972;SDS011;1496;51.404;7.232;2022-12-11T01:41:01;57.23;;;20.30;;
2972;SDS011;1496;51.404;7.232;2022-12-11T01:43:26;62.93;;;22.70;;
2972;SDS011;1496;51.404;7.232;2022-12-11T01:45:52;59.37;;;24.30;;
2972;SDS011;1496;51.404;7.232;2022-12-11T01:48:19;73.57;;;23.63;;
2972;SDS011;1496;51.404;7.232;2022-12-11T01:50:57;59.67;;;23.43;;
2972;SDS011;1496;51.404;7.232;2022-12-11T01:53:32;81.37;;;23.70;;
2972;SDS011;1496;51.404;7.232;2022-12-11T01:56:01;60.90;;;22.23;;
2972;SDS011;1496;51.404;7.232;2022-12-11T01:58:28;77.73;;;25.50;;
2972;SDS011;1496;51.404;7.232;2022-12-11T02:00:57;66.47;;;24.60;;
2972;SDS011;1496;51.404;7.232;2022-12-11T02:03:23;60.27;;;24.53;;
2972;SDS011;1496;51.404;7.232;2022-12-11T02:05:49;69.40;;;24.10;;
2972;SDS011;1496;51.404;7.232;2022-12-11T02:08:15;60.20;;;22.83;;
2972;SDS011;1496;51.404;7.232;2022-12-11T02:13:26;72.63;;;23.83;;
2972;SDS011;1496;51.404;7.232;2022-12-11T02:17:12;78.33;;;25.20;;
2972;SDS011;1496;51.404;7.232;2022-12-11T02:21:43;85.67;;;24.87;;
2972;SDS011;1496;51.404;7.232;2022-12-11T02:29:35;60.30;;;25.77;;
2972;SDS011;1496;51.404;7.232;2022-12-11T02:32:05;84.60;;;28.07;;
2972;SDS011;1496;51.404;7.232;2022-12-11T02:34:39;78.00;;;25.10;;
2972;SDS011;1496;51.404;7.232;2022-12-11T02:37:11;87.23;;;25.00;;
2972;SDS011;1496;51.404;7.232;2022-12-11T02:39:42;70.20;;;27.20;;
2972;SDS011;1496;51.404;7.232;2022-12-11T02:42:10;71.73;;;23.80;;
2972;SDS011;1496;51.404;7.232;2022-12-11T02:44:41;71.30;;;23.70;;
2972;SDS011;1496;51.404;7.232;2022-12-11T02:47:10;73.23;;;27.37;;
2972;SDS011;1496;51.404;7.232;2022-12-11T02:49:38;59.80;;;23.03;;
2972;SDS011;1496;51.404;7.232;2022-12-11T02:52:07;56.60;;;25.00;;
2972;SDS011;1496;51.404;7.232;2022-12-11T02:54:37;68.93;;;24.97;;
2972;SDS011;1496;51.404;7.232;2022-12-11T02:57:07;69.20;;;26.00;;
2972;SDS011;1496;51.404;7.232;2022-12-11T02:59:49;67.87;;;24.63;;
2972;SDS011;1496;51.404;7.232;2022-12-11T03:02:15;80.13;;;29.00;;
2972;SDS011;1496;51.404;7.232;2022-12-11T03:04:42;70.60;;;24.60;;
2972;SDS011;1496;51.404;7.232;2022-12-11T03:07:11;76.60;;;26.47;;
2972;SDS011;1496;51.404;7.232;2022-12-11T03:09:42;58.07;;;24.00;;
2972;SDS011;1496;51.404;7.232;2022-12-11T03:12:10;65.23;;;27.77;;
2972;SDS011;1496;51.404;7.232;2022-12-11T03:14:38;59.67;;;24.80;;
2972;SDS011;1496;51.404;7.232;2022-12-11T03:17:28;69.03;;;26.60;;
2972;SDS011;1496;51.404;7.232;2022-12-11T03:22:46;63.70;;;25.00;;
2972;SDS011;1496;51.404;7.232;2022-12-11T03:27:57;64.27;;;26.63;;
2972;SDS011;1496;51.404;7.232;2022-12-11T03:30:30;67.93;;;23.73;;
2972;SDS011;1496;51.404;7.232;2022-12-11T03:33:03;76.90;;;27.17;;
2972;SDS011;1496;51.404;7.232;2022-12-11T03:35:43;72.43;;;24.10;;
2972;SDS011;1496;51.404;7.232;2022-12-11T03:38:12;61.13;;;25.60;;
2972;SDS011;1496;51.404;7.232;2022-12-11T03:40:42;60.50;;;22.73;;
2972;SDS011;1496;51.404;7.232;2022-12-11T03:43:12;68.37;;;24.50;;
2972;SDS011;1496;51.404;7.232;2022-12-11T03:45:40;66.90;;;25.97;;
2972;SDS011;1496;51.404;7.232;2022-12-11T03:48:06;63.93;;;25.70;;
2972;SDS011;1496;51.404;7.232;2022-12-11T03:50:34;73.20;;;24.17;;
2972;SDS011;1496;51.404;7.232;2022-12-11T03:53:04;81.10;;;26.50;;
2972;SDS011;1496;51.404;7.232;2022-12-11T03:55:31;74.03;;;26.80;;
2972;SDS011;1496;51.404;7.232;2022-12-11T03:57:57;83.07;;;26.83;;
2972;SDS011;1496;51.404;7.232;2022-12-11T04:00:23;78.90;;;24.20;;
2972;SDS011;1496;51.404;7.232;2022-12-11T04:02:48;80.57;;;26.27;;
2972;SDS011;1496;51.404;7.232;2022-12-11T04:05:35;85.13;;;27.53;;
2972;SDS011;1496;51.404;7.232;2022-12-11T04:08:00;85.43;;;26.67;;
2972;SDS011;1496;51.404;7.232;2022-12-11T04:10:26;78.07;;;26.47;;
2972;SDS011;1496;51.404;7.232;2022-12-11T04:12:52;85.20;;;28.33;;
2972;SDS011;1496;51.404;7.232;2022-12-11T04:15:18;79.47;;;25.23;;
2972;SDS011;1496;51.404;7.232;2022-12-11T04:17:44;79.40;;;26.77;;
2972;SDS011;1496;51.404;7.232;2022-12-11T04:20:28;84.30;;;26.27;;
2972;SDS011;1496;51.404;7.232;2022-12-11T04:23:13;67.37;;;28.13;;
2972;SDS011;1496;51.404;7.232;2022-12-11T04:26:07;83.30;;;26.50;;
2972;SDS011;1496;51.404;7.232;2022-12-11T04:28:44;67.97;;;24.97;;
2972;SDS011;1496;51.404;7.232;2022-12-11T04:31:11;70.57;;;24.47;;
2972;SDS011;1496;51.404;7.232;2022-12-11T04:33:42;74.97;;;23.30;;
2972;SDS011;1496;51.404;7.232;2022-12-11T04:36:08;59.80;;;23.33;;
2972;SDS011;1496;51.404;7.232;2022-12-11T04:38:34;70.83;;;26.40;;
2972;SDS011;1496;51.404;7.232;2022-12-11T04:41:01;63.83;;;25.77;;
2972;SDS011;1496;51.404;7.232;2022-12-11T04:43:37;50.70;;;22.33;;
2972;SDS011;1496;51.404;7.232;2022-12-11T04:48:42;54.17;;;21.80;;
2972;SDS011;1496;51.404;7.232;2022-12-11T04:51:08;55.30;;;21.20;;
2972;SDS011;1496;51.404;7.232;2022-12-11T04:53:34;61.03;;;22.10;;
2972;SDS011;1496;51.404;7.232;2022-12-11T04:56:00;66.37;;;22.93;;
2972;SDS011;1496;51.404;7.232;2022-12-11T04:58:29;53.37;;;21.80;;
2972;SDS011;1496;51.404;7.232;2022-12-11T05:00:55;50.13;;;19.67;;
2972;SDS011;1496;51.404;7.232;2022-12-11T05:03:24;58.50;;;23.00;;
2972;SDS011;1496;51.404;7.232;2022-12-11T05:05:50;49.00;;;20.97;;
2972;SDS011;1496;51.404;7.232;2022-12-11T05:08:17;53.43;;;21.63;;
2972;SDS011;1496;51.404;7.232;2022-12-11T05:10:53;53.77;;;22.23;;
2972;SDS011;1496;51.404;7.232;2022-12-11T05:13:19;57.07;;;22.80;;
2972;SDS011;1496;51.404;7.232;2022-12-11T05:15:45;48.43;;;20.60;;
2972;SDS011;1496;51.404;7.232;2022-12-11T05:18:11;50.10;;;20.53;;
2972;SDS011;1496;51.404;7.232;2022-12-11T05:20:36;42.97;;;17.90;;
2972;SDS011;1496;51.404;7.232;2022-12-11T05:23:02;43.60;;;18.47;;
2972;SDS011;1496;51.404;7.232;2022-12-11T05:25:28;36.30;;;17.20;;
2972;SDS011;1496;51.404;7.232;2022-12-11T05:27:54;42.17;;;18.30;;
2972;SDS011;1496;51.404;7.232;2022-12-11T05:30:19;38.70;;;17.50;;
2972;SDS011;1496;51.404;7.232;2022-12-11T05:32:45;38.57;;;16.70;;
2972;SDS011;1496;51.404;7.232;2022-12-11T05:35:11;38.13;;;17.57;;
2972;SDS011;1496;51.404;7.232;2022-12-11T05:37:36;37.77;;;15.00;;
2972;SDS011;1496;51.404;7.232;2022-12-11T05:40:02;37.60;;;15.83;;
2972;SDS011;1496;51.404;7.232;2022-12-11T05:42:30;38.90;;;16.57;;
2972;SDS011;1496;51.404;7.232;2022-12-11T05:44:56;41.23;;;18.10;;
2972;SDS011;1496;51.404;7.232;2022-12-11T05:47:22;36.37;;;15.67;;
2972;SDS011;1496;51.404;7.232;2022-12-11T05:49:48;41.07;;;15.30;;
2972;SDS011;1496;51.404;7.232;2022-12-11T05:52:13;40.87;;;16.83;;
2972;SDS011;1496;51.404;7.232;2022-12-11T05:54:40;39.53;;;17.17;;
2972;SDS011;1496;51.404;7.232;2022-12-11T05:57:06;35.97;;;15.67;;
2972;SDS011;1496;51.404;7.232;2022-12-11T05:59:32;32.10;;;14.00;;
2972;SDS011;1496;51.404;7.232;2022-12-11T06:01:58;38.10;;;15.80;;
2972;SDS011;1496;51.404;7.232;2022-12-11T06:04:23;37.70;;;16.77;;
2972;SDS011;1496;51.404;7.232;2022-12-11T06:06:49;32.83;;;15.13;;
2972;SDS011;1496;51.404;7.232;2022-12-11T06:09:17;46.33;;;17.30;;
2972;SDS011;1496;51.404;7.232;2022-12-11T06:11:43;41.00;;;17.10;;
2972;SDS011;1496;51.404;7.232;2022-12-11T06:14:09;45.17;;;14.90;;
2972;SDS011;1496;51.404;7.232;2022-12-11T06:16:34;46.23;;;16.27;;
2972;SDS011;1496;51.404;7.232;2022-12-11T06:19:00;39.90;;;15.80;;
2972;SDS011;1496;51.404;7.232;2022-12-11T06:21:27;38.03;;;15.40;;
2972;SDS011;1496;51.404;7.232;2022-12-11T06:23:55;39.93;;;17.20;;
2972;SDS011;1496;51.404;7.232;2022-12-11T06:26:25;40.13;;;16.00;;
2972;SDS011;1496;51.404;7.232;2022-12-11T06:28:52;35.87;;;15.83;;
2972;SDS011;1496;51.404;7.232;2022-12-11T06:31:18;34.27;;;15.83;;
2972;SDS011;1496;51.404;7.232;2022-12-11T06:33:44;37.50;;;14.50;;
2972;SDS011;1496;51.404;7.232;2022-12-11T06:36:11;34.10;;;15.37;;
2972;SDS011;1496;51.404;7.232;2022-12-11T06:38:39;32.97;;;14.83;;
2972;SDS011;1496;51.404;7.232;2022-12-11T06:41:05;37.43;;;15.33;;
2972;SDS011;1496;51.404;7.232;2022-12-11T06:43:32;37.07;;;14.63;;
2972;SDS011;1496;51.404;7.232;2022-12-11T06:46:02;40.00;;;16.67;;
2972;SDS011;1496;51.404;7.232;2022-12-11T06:48:29;38.43;;;16.10;;
2972;SDS011;1496;51.404;7.232;2022-12-11T06:50:54;39.93;;;17.37;;
2972;SDS011;1496;51.404;7.232;2022-12-11T06:53:20;36.23;;;16.47;;
2972;SDS011;1496;51.404;7.232;2022-12-11T06:55:46;39.40;;;15.50;;
2972;SDS011;1496;51.404;7.232;2022-12-11T06:58:11;39.60;;;16.63;;
2972;SDS011;1496;51.404;7.232;2022-12-11T07:00:37;44.30;;;17.00;;
2972;SDS011;1496;51.404;7.232;2022-12-11T07:03:03;37.13;;;16.77;;
2972;SDS011;1496;51.404;7.232;2022-12-11T07:05:30;29.50;;;14.60;;
2972;SDS011;1496;51.404;7.232;2022-12-11T07:07:56;33.93;;;14.60;;
2972;SDS011;1496;51.404;7.232;2022-12-11T07:10:22;38.13;;;16.20;;
2972;SDS011;1496;51.404;7.232;2022-12-11T07:12:48;34.93;;;16.00;;
2972;SDS011;1496;51.404;7.232;2022-12-11T07:15:16;29.97;;;13.33;;
2972;SDS011;1496;51.404;7.232;2022-12-11T07:17:41;38.47;;;17.00;;
2972;SDS011;1496;51.404;7.232;2022-12-11T07:20:07;38.13;;;14.70;;
2972;SDS011;1496;51.404;7.232;2022-12-11T07:22:33;38.83;;;16.40;;
2972;SDS011;1496;51.404;7.232;2022-12-11T07:24:59;41.00;;;15.40;;
2972;SDS011;1496;51.404;7.232;2022-12-11T07:27:24;41.60;;;15.50;;
2972;SDS011;1496;51.404;7.232;2022-12-11T07:29:50;37.50;;;14.60;;
2972;SDS011;1496;51.404;7.232;2022-12-11T07:32:16;38.73;;;15.73;;
2972;SDS011;1496;51.404;7.232;2022-12-11T07:34:44;40.07;;;17.17;;
2972;SDS011;1496;51.404;7.232;2022-12-11T07:37:09;40.20;;;16.67;;
2972;SDS011;1496;51.404;7.232;2022-12-11T07:39:35;36.37;;;14.67;;
2972;SDS011;1496;51.404;7.232;2022-12-11T07:42:00;37.50;;;16.17;;
2972;SDS011;1496;51.404;7.232;2022-12-11T07:44:26;34.60;;;13.40;;
2972;SDS011;1496;51.404;7.232;2022-12-11T07:46:52;38.80;;;14.47;;
2972;SDS011;1496;51.404;7.232;2022-12-11T07:49:17;37.30;;;14.73;;
2972;SDS011;1496;51.404;7.232;2022-12-11T07:51:43;43.43;;;15.10;;
2972;SDS011;1496;51.404;7.232;2022-12-11T07:54:12;35.13;;;13.77;;
2972;SDS011;1496;51.404;7.232;2022-12-11T07:56:44;38.23;;;13.77;;
2972;SDS011;1496;51.404;7.232;2022-12-11T07:59:11;36.37;;;15.30;;
2972;SDS011;1496;51.404;7.232;2022-12-11T08:01:37;37.47;;;15.33;;
2972;SDS011;1496;51.404;7.232;2022-12-11T08:04:04;37.73;;;14.33;;
2972;SDS011;1496;51.404;7.232;2022-12-11T08:06:32;35.53;;;14.03;;
2972;SDS011;1496;51.404;7.232;2022-12-11T08:09:00;38.83;;;13.87;;
2972;SDS011;1496;51.404;7.232;2022-12-11T08:11:27;37.47;;;13.97;;
2972;SDS011;1496;51.404;7.232;2022-12-11T08:13:53;34.77;;;14.10;;
2972;SDS011;1496;51.404;7.232;2022-12-11T08:16:19;34.60;;;14.10;;
2972;SDS011;1496;51.404;7.232;2022-12-11T08:18:46;36.10;;;14.37;;
2972;SDS011;1496;51.404;7.232;2022-12-11T08:21:22;33.90;;;13.97;;
2972;SDS011;1496;51.404;7.232;2022-12-11T08:23:49;31.87;;;13.17;;
2972;SDS011;1496;51.404;7.232;2022-12-11T08:26:23;33.40;;;14.30;;
2972;SDS011;1496;51.404;7.232;2022-12-11T08:28:53;42.33;;;15.93;;
2972;SDS011;1496;51.404;7.232;2022-12-11T08:31:20;36.33;;;13.80;;
2972;SDS011;1496;51.404;7.232;2022-12-11T08:33:46;34.57;;;14.40;;
2972;SDS011;1496;51.404;7.232;2022-12-11T08:36:14;35.50;;;15.27;;
2972;SDS011;1496;51.404;7.232;2022-12-11T08:38:41;34.43;;;14.00;;
2972;SDS011;1496;51.404;7.232;2022-12-11T08:41:08;37.97;;;15.00;;
2972;SDS011;1496;51.404;7.232;2022-12-11T08:43:35;42.60;;;15.20;;
2972;SDS011;1496;51.404;7.232;2022-12-11T08:46:04;38.50;;;17.97;;
2972;SDS011;1496;51.404;7.232;2022-12-11T08:48:31;42.27;;;16.67;;
2972;SDS011;1496;51.404;7.232;2022-12-11T08:50:59;38.40;;;15.20;;
2972;SDS011;1496;51.404;7.232;2022-12-11T08:53:27;40.37;;;15.97;;
2972;SDS011;1496;51.404;7.232;2022-12-11T08:58:28;40.17;;;15.80;;
2972;SDS011;1496;51.404;7.232;2022-12-11T09:00:54;37.20;;;15.90;;
2972;SDS011;1496;51.404;7.232;2022-12-11T09:03:20;46.30;;;18.40;;
2972;SDS011;1496;51.404;7.232;2022-12-11T09:05:46;39.77;;;16.97;;
2972;SDS011;1496;51.404;7.232;2022-12-11T09:08:11;44.17;;;18.47;;
2972;SDS011;1496;51.404;7.232;2022-12-11T09:10:37;48.47;;;18.43;;
2972;SDS011;1496;51.404;7.232;2022-12-11T09:13:03;38.93;;;16.93;;
2972;SDS011;1496;51.404;7.232;2022-12-11T09:15:28;41.13;;;16.13;;
2972;SDS011;1496;51.404;7.232;2022-12-11T09:17:54;46.43;;;17.80;;
2972;SDS011;1496;51.404;7.232;2022-12-11T09:20:20;41.97;;;14.67;;
2972;SDS011;1496;51.404;7.232;2022-12-11T09:22:45;38.57;;;15.10;;
2972;SDS011;1496;51.404;7.232;2022-12-11T09:25:11;40.57;;;15.83;;
2972;SDS011;1496;51.404;7.232;2022-12-11T09:27:37;37.53;;;15.87;;
2972;SDS011;1496;51.404;7.232;2022-12-11T09:30:03;41.70;;;16.97;;
2972;SDS011;1496;51.404;7.232;2022-12-11T09:32:29;39.23;;;17.33;;
2972;SDS011;1496;51.404;7.232;2022-12-11T09:34:57;36.53;;;15.13;;
2972;SDS011;1496;51.404;7.232;2022-12-11T09:37:22;43.23;;;15.87;;
2972;SDS011;1496;51.404;7.232;2022-12-11T09:39:48;42.10;;;18.50;;
2972;SDS011;1496;51.404;7.232;2022-12-11T09:42:17;40.70;;;16.73;;
2972;SDS011;1496;51.404;7.232;2022-12-11T09:44:50;40.60;;;16.73;;
2972;SDS011;1496;51.404;7.232;2022-12-11T09:47:31;43.20;;;15.73;;
2972;SDS011;1496;51.404;7.232;2022-12-11T09:53:06;39.73;;;16.20;;
2972;SDS011;1496;51.404;7.232;2022-12-11T09:55:51;36.63;;;14.50;;
2972;SDS011;1496;51.404;7.232;2022-12-11T10:14:52;38.70;;;15.10;;
2972;SDS011;1496;51.404;7.232;2022-12-11T10:17:29;37.70;;;16.00;;
2972;SDS011;1496;51.404;7.232;2022-12-11T10:20:02;33.57;;;14.53;;
2972;SDS011;1496;51.404;7.232;2022-12-11T10:22:41;38.00;;;15.60;;
2972;SDS011;1496;51.404;7.232;2022-12-11T10:25:13;33.17;;;15.03;;
2972;SDS011;1496;51.404;7.232;2022-12-11T10:27:45;38.27;;;15.37;;
2972;SDS011;1496;51.404;7.232;2022-12-11T10:35:25;41.43;;;15.87;;
2972;SDS011;1496;51.404;7.232;2022-12-11T10:38:15;33.37;;;15.23;;
2972;SDS011;1496;51.404;7.232;2022-12-11T10:41:04;38.30;;;14.77;;
2972;SDS011;1496;51.404;7.232;2022-12-11T10:43:36;37.33;;;13.73;;
2972;SDS011;1496;51.404;7.232;2022-12-11T10:46:04;39.97;;;14.90;;
2972;SDS011;1496;51.404;7.232;2022-12-11T10:48:44;32.20;;;13.47;;
2972;SDS011;1496;51.404;7.232;2022-12-11T10:51:10;36.03;;;14.37;;
2972;SDS011;1496;51.404;7.232;2022-12-11T10:53:36;39.40;;;15.53;;
2972;SDS011;1496;51.404;7.232;2022-12-11T10:56:04;36.07;;;14.67;;
2972;SDS011;1496;51.404;7.232;2022-12-11T10:58:31;39.97;;;16.50;;
2972;SDS011;1496;51.404;7.232;2022-12-11T11:03:35;39.47;;;14.67;;
2972;SDS011;1496;51.404;7.232;2022-12-11T11:08:42;35.27;;;13.80;;
2972;SDS011;1496;51.404;7.232;2022-12-11T11:13:48;38.83;;;15.37;;
2972;SDS011;1496;51.404;7.232;2022-12-11T11:16:15;35.87;;;12.70;;
2972;SDS011;1496;51.404;7.232;2022-12-11T11:18:48;37.90;;;12.57;;
2972;SDS011;1496;51.404;7.232;2022-12-11T11:21:18;35.90;;;12.70;;
2972;SDS011;1496;51.404;7.232;2022-12-11T11:23:45;36.60;;;13.60;;
2972;SDS011;1496;51.404;7.232;2022-12-11T11:26:10;40.07;;;14.20;;
2972;SDS011;1496;51.404;7.232;2022-12-11T11:28:55;34.30;;;12.70;;
2972;SDS011;1496;51.404;7.232;2022-12-11T11:31:30;31.30;;;11.17;;
2972;SDS011;1496;51.404;7.232;2022-12-11T11:34:00;33.30;;;11.50;;
2972;SDS011;1496;51.404;7.232;2022-12-11T11:36:30;33.50;;;11.00;;
2972;SDS011;1496;51.404;7.232;2022-12-11T11:47:29;44.10;;;13.40;;
2972;SDS011;1496;51.404;7.232;2022-12-11T11:50:11;37.27;;;11.53;;
2972;SDS011;1496;51.404;7.232;2022-12-11T11:52:47;37.30;;;11.13;;
2972;SDS011;1496;51.404;7.232;2022-12-11T11:58:08;39.43;;;11.93;;
2972;SDS011;1496;51.404;7.232;2022-12-11T12:00:47;41.93;;;12.17;;
2972;SDS011;1496;51.404;7.232;2022-12-11T12:03:16;40.50;;;13.30;;
2972;SDS011;1496;51.404;7.232;2022-12-11T12:10:57;42.27;;;12.23;;
2972;SDS011;1496;51.404;7.232;2022-12-11T12:13:35;38.37;;;11.77;;
2972;SDS011;1496;51.404;7.232;2022-12-11T12:16:26;43.00;;;12.60;;
2972;SDS011;1496;51.404;7.232;2022-12-11T12:19:23;48.80;;;15.37;;
2972;SDS011;1496;51.404;7.232;2022-12-11T12:22:18;46.17;;;12.70;;
2972;SDS011;1496;51.404;7.232;2022-12-11T12:27:44;49.27;;;15.40;;
2972;SDS011;1496;51.404;7.232;2022-12-11T12:30:37;49.67;;;16.07;;
2972;SDS011;1496;51.404;7.232;2022-12-11T12:36:43;47.27;;;14.00;;
2972;SDS011;1496;51.404;7.232;2022-12-11T12:39:25;47.40;;;15.57;;
2972;SDS011;1496;51.404;7.232;2022-12-11T12:44:52;48.07;;;15.67;;
2972;SDS011;1496;51.404;7.232;2022-12-11T12:47:23;46.23;;;15.10;;
2972;SDS011;1496;51.404;7.232;2022-12-11T12:49:52;51.33;;;17.40;;
2972;SDS011;1496;51.404;7.232;2022-12-11T12:52:21;44.40;;;14.17;;
2972;SDS011;1496;51.404;7.232;2022-12-11T12:54:55;52.00;;;16.20;;
2972;SDS011;1496;51.404;7.232;2022-12-11T12:58:04;47.90;;;14.50;;
2972;SDS011;1496;51.404;7.232;2022-12-11T13:00:33;48.93;;;15.20;;
2972;SDS011;1496;51.404;7.232;2022-12-11T13:03:10;48.47;;;16.77;;
2972;SDS011;1496;51.404;7.232;2022-12-11T13:08:29;46.80;;;14.93;;
2972;SDS011;1496;51.404;7.232;2022-12-11T13:11:15;49.97;;;14.87;;
2972;SDS011;1496;51.404;7.232;2022-12-11T13:13:43;45.20;;;14.70;;
2972;SDS011;1496;51.404;7.232;2022-12-11T13:18:40;43.83;;;14.27;;
2972;SDS011;1496;51.404;7.232;2022-12-11T13:21:24;46.57;;;14.70;;
2972;SDS011;1496;51.404;7.232;2022-12-11T13:23:53;52.20;;;17.20;;
2972;SDS011;1496;51.404;7.232;2022-12-11T13:26:29;47.00;;;15.43;;
2972;SDS011;1496;51.404;7.232;2022-12-11T13:28:57;49.63;;;16.70;;
2972;SDS011;1496;51.404;7.232;2022-12-11T13:34:20;48.80;;;14.67;;
2972;SDS011;1496;51.404;7.232;2022-12-11T13:36:48;45.73;;;13.37;;
2972;SDS011;1496;51.404;7.232;2022-12-11T13:39:19;47.50;;;14.33;;
2972;SDS011;1496;51.404;7.232;2022-12-11T13:42:02;46.37;;;15.63;;
2972;SDS011;1496;51.404;7.232;2022-12-11T13:44:32;48.93;;;14.83;;
2972;SDS011;1496;51.404;7.232;2022-12-11T13:47:03;51.30;;;15.47;;
2972;SDS011;1496;51.404;7.232;2022-12-11T13:49:34;52.80;;;15.80;;
2972;SDS011;1496;51.404;7.232;2022-12-11T13:52:06;45.50;;;14.20;;
2972;SDS011;1496;51.404;7.232;2022-12-11T13:54:45;44.90;;;14.80;;
2972;SDS011;1496;51.404;7.232;2022-12-11T13:57:17;50.00;;;14.57;;
2972;SDS011;1496;51.404;7.232;2022-12-11T13:59:51;54.77;;;17.37;;
2972;SDS011;1496;51.404;7.232;2022-12-11T14:02:28;45.33;;;16.50;;
2972;SDS011;1496;51.404;7.232;2022-12-11T14:04:58;51.63;;;16.00;;
2972;SDS011;1496;51.404;7.232;2022-12-11T14:07:30;44.80;;;14.80;;
2972;SDS011;1496;51.404;7.232;2022-12-11T14:10:04;45.20;;;14.67;;
2972;SDS011;1496;51.404;7.232;2022-12-11T14:12:50;43.77;;;14.60;;
2972;SDS011;1496;51.404;7.232;2022-12-11T14:15:28;47.90;;;14.77;;
2972;SDS011;1496;51.404;7.232;2022-12-11T14:17:59;49.53;;;15.70;;
2972;SDS011;1496;51.404;7.232;2022-12-11T14:20:27;45.77;;;14.60;;
2972;SDS011;1496;51.404;7.232;2022-12-11T14:23:04;50.43;;;17.40;;
2972;SDS011;1496;51.404;7.232;2022-12-11T14:25:31;58.37;;;18.67;;
2972;SDS011;1496;51.404;7.232;2022-12-11T14:27:57;51.30;;;18.10;;
2972;SDS011;1496;51.404;7.232;2022-12-11T14:30:25;57.67;;;17.27;;
2972;SDS011;1496;51.404;7.232;2022-12-11T14:32:54;52.37;;;16.57;;
2972;SDS011;1496;51.404;7.232;2022-12-11T14:35:29;49.67;;;16.07;;
2972;SDS011;1496;51.404;7.232;2022-12-11T14:37:59;50.13;;;15.00;;
2972;SDS011;1496;51.404;7.232;2022-12-11T14:40:37;49.80;;;15.73;;
2972;SDS011;1496;51.404;7.232;2022-12-11T14:43:07;53.00;;;15.93;;
2972;SDS011;1496;51.404;7.232;2022-12-11T14:45:39;43.83;;;15.03;;
2972;SDS011;1496;51.404;7.232;2022-12-11T14:48:26;49.10;;;15.40;;
2972;SDS011;1496;51.404;7.232;2022-12-11T14:50:57;47.00;;;14.73;;
2972;SDS011;1496;51.404;7.232;2022-12-11T14:53:30;46.87;;;15.30;;
2972;SDS011;1496;51.404;7.232;2022-12-11T14:56:06;46.83;;;16.20;;
2972;SDS011;1496;51.404;7.232;2022-12-11T14:58:36;49.77;;;16.23;;
2972;SDS011;1496;51.404;7.232;2022-12-11T15:01:19;49.73;;;15.93;;
2972;SDS011;1496;51.404;7.232;2022-12-11T15:03:46;45.73;;;14.10;;
2972;SDS011;1496;51.404;7.232;2022-12-11T15:06:22;48.63;;;14.37;;
2972;SDS011;1496;51.404;7.232;2022-12-11T15:08:50;44.97;;;14.80;;
2972;SDS011;1496;51.404;7.232;2022-12-11T15:11:16;47.60;;;15.80;;
2972;SDS011;1496;51.404;7.232;2022-12-11T15:13:48;41.17;;;12.18;;
2972;SDS011;1496;51.404;7.232;2022-12-11T15:16:21;44.87;;;15.10;;
2972;SDS011;1496;51.404;7.232;2022-12-11T15:18:49;49.47;;;15.27;;
2972;SDS011;1496;51.404;7.232;2022-12-11T15:21:16;47.53;;;14.70;;
2972;SDS011;1496;51.404;7.232;2022-12-11T15:26:15;47.60;;;15.67;;
2972;SDS011;1496;51.404;7.232;2022-12-11T15:28:41;51.87;;;15.43;;
2972;SDS011;1496;51.404;7.232;2022-12-11T15:31:21;62.23;;;14.37;;
2972;SDS011;1496;51.404;7.232;2022-12-11T15:33:52;52.23;;;15.90;;
2972;SDS011;1496;51.404;7.232;2022-12-11T15:36:34;49.47;;;16.60;;
2972;SDS011;1496;51.404;7.232;2022-12-11T15:39:01;43.43;;;13.30;;
2972;SDS011;1496;51.404;7.232;2022-12-11T15:41:29;49.33;;;15.60;;
2972;SDS011;1496;51.404;7.232;2022-12-11T15:43:59;51.40;;;15.70;;
2972;SDS011;1496;51.404;7.232;2022-12-11T15:46:27;51.47;;;16.63;;
2972;SDS011;1496;51.404;7.232;2022-12-11T15:48:53;52.93;;;16.10;;
2972;SDS011;1496;51.404;7.232;2022-12-11T15:51:20;47.60;;;15.70;;
2972;SDS011;1496;51.404;7.232;2022-12-11T15:53:47;49.87;;;15.77;;
2972;SDS011;1496;51.404;7.232;2022-12-11T15:56:14;51.03;;;16.87;;
2972;SDS011;1496;51.404;7.232;2022-12-11T15:58:40;52.47;;;18.57;;
2972;SDS011;1496;51.404;7.232;2022-12-11T16:01:11;51.53;;;18.37;;
2972;SDS011;1496;51.404;7.232;2022-12-11T16:03:36;49.93;;;17.53;;
2972;SDS011;1496;51.404;7.232;2022-12-11T16:06:02;53.73;;;17.70;;
2972;SDS011;1496;51.404;7.232;2022-12-11T16:08:31;56.73;;;17.97;;
2972;SDS011;1496;51.404;7.232;2022-12-11T16:11:09;48.00;;;15.40;;
2972;SDS011;1496;51.404;7.232;2022-12-11T16:13:37;57.73;;;17.93;;
2972;SDS011;1496;51.404;7.232;2022-12-11T16:16:03;58.10;;;20.57;;
2972;SDS011;1496;51.404;7.232;2022-12-11T16:18:30;58.60;;;19.13;;
2972;SDS011;1496;51.404;7.232;2022-12-11T16:20:56;52.97;;;17.27;;
2972;SDS011;1496;51.404;7.232;2022-12-11T16:23:22;53.27;;;17.87;;
2972;SDS011;1496;51.404;7.232;2022-12-11T16:25:49;54.03;;;17.17;;
2972;SDS011;1496;51.404;7.232;2022-12-11T16:28:17;52.33;;;19.67;;
2972;SDS011;1496;51.404;7.232;2022-12-11T16:30:45;59.63;;;20.07;;
2972;SDS011;1496;51.404;7.232;2022-12-11T16:33:11;53.10;;;19.10;;